sensor_id;sensor_type;location;lat;lon;timestamp;temperature;humidity
18218;DHT22;9234;49.344;11.120;2023-04-24T00:00:38;11.20;99.90
18218;DHT22;9234;49.344;11.120;2023-04-24T00:03:07;11.10;99.90
18218;DHT22;9234;49.344;11.120;2023-04-24T00:05:36;11.10;99.90
18218;DHT22;9234;49.344;11.120;2023-04-24T00:08:04;11.10;99.90
18218;DHT22;9234;49.344;11.120;2023-04-24T00:10:32;11.10;99.90
18218;DHT22;9234;49.344;11.120;2023-04-24T00:13:02;11.10;99.90
18218;DHT22;9234;49.344;11.120;2023-04-24T00:15:30;11.00;99.90
18218;DHT22;9234;49.344;11.120;2023-04-24T00:17:58;11.10;99.90
18218;DHT22;9234;49.344;11.120;2023-04-24T00:20:28;11.00;99.90
18218;DHT22;9234;49.344;11.120;2023-04-24T00:22:56;11.00;99.90
18218;DHT22;9234;49.344;11.120;2023-04-24T00:25:24;11.00;99.90
18218;DHT22;9234;49.344;11.120;2023-04-24T00:27:53;11.00;99.90
18218;DHT22;9234;49.344;11.120;2023-04-24T00:30:22;11.00;99.90
18218;DHT22;9234;49.344;11.120;2023-04-24T00:32:50;11.00;99.90
18218;DHT22;9234;49.344;11.120;2023-04-24T00:35:19;10.90;99.90
18218;DHT22;9234;49.344;11.120;2023-04-24T00:37:47;10.90;99.90
18218;DHT22;9234;49.344;11.120;2023-04-24T00:40:16;10.90;99.90
18218;DHT22;9234;49.344;11.120;2023-04-24T00:42:44;10.90;99.90
18218;DHT22;9234;49.344;11.120;2023-04-24T00:45:13;10.90;99.90
18218;DHT22;9234;49.344;11.120;2023-04-24T00:47:43;10.90;99.90
18218;DHT22;9234;49.344;11.120;2023-04-24T00:50:15;10.90;99.90
18218;DHT22;9234;49.344;11.120;2023-04-24T00:52:44;10.90;99.90
18218;DHT22;9234;49.344;11.120;2023-04-24T00:55:12;10.90;99.90
18218;DHT22;9234;49.344;11.120;2023-04-24T00:57:40;10.90;99.90
18218;DHT22;9234;49.344;11.120;2023-04-24T01:00:09;10.90;99.90
18218;DHT22;9234;49.344;11.120;2023-04-24T01:02:39;10.80;99.90
18218;DHT22;9234;49.344;11.120;2023-04-24T01:05:13;10.80;99.90
18218;DHT22;9234;49.344;11.120;2023-04-24T01:07:44;10.80;99.90
18218;DHT22;9234;49.344;11.120;2023-04-24T01:10:16;10.80;99.90
18218;DHT22;9234;49.344;11.120;2023-04-24T01:12:45;10.80;99.90
18218;DHT22;9234;49.344;11.120;2023-04-24T01:15:14;10.80;99.90
18218;DHT22;9234;49.344;11.120;2023-04-24T01:17:42;10.80;99.90
18218;DHT22;9234;49.344;11.120;2023-04-24T01:20:12;10.70;99.90
18218;DHT22;9234;49.344;11.120;2023-04-24T01:22:43;10.70;99.90
18218;DHT22;9234;49.344;11.120;2023-04-24T01:25:12;10.70;99.90
18218;DHT22;9234;49.344;11.120;2023-04-24T01:27:40;10.70;99.90
18218;DHT22;9234;49.344;11.120;2023-04-24T01:30:10;10.70;99.90
18218;DHT22;9234;49.344;11.120;2023-04-24T01:32:39;10.70;99.90
18218;DHT22;9234;49.344;11.120;2023-04-24T01:35:08;10.60;99.90
18218;DHT22;9234;49.344;11.120;2023-04-24T01:37:36;10.60;99.90
18218;DHT22;9234;49.344;11.120;2023-04-24T01:40:07;10.60;99.90
18218;DHT22;9234;49.344;11.120;2023-04-24T01:42:36;10.50;99.90
18218;DHT22;9234;49.344;11.120;2023-04-24T01:45:05;10.50;99.90
18218;DHT22;9234;49.344;11.120;2023-04-24T01:47:37;10.50;99.90
18218;DHT22;9234;49.344;11.120;2023-04-24T01:50:07;10.50;99.90
18218;DHT22;9234;49.344;11.120;2023-04-24T01:52:38;10.40;99.90
18218;DHT22;9234;49.344;11.120;2023-04-24T01:55:10;10.40;99.90
18218;DHT22;9234;49.344;11.120;2023-04-24T01:57:39;10.40;99.90
18218;DHT22;9234;49.344;11.120;2023-04-24T02:00:09;10.40;99.90
18218;DHT22;9234;49.344;11.120;2023-04-24T02:02:41;10.40;99.90
18218;DHT22;9234;49.344;11.120;2023-04-24T02:05:14;10.40;99.90
18218;DHT22;9234;49.344;11.120;2023-04-24T02:07:42;10.40;99.90
18218;DHT22;9234;49.344;11.120;2023-04-24T02:10:11;10.40;99.90
18218;DHT22;9234;49.344;11.120;2023-04-24T02:12:42;10.40;99.90
18218;DHT22;9234;49.344;11.120;2023-04-24T02:15:11;10.30;99.90
18218;DHT22;9234;49.344;11.120;2023-04-24T02:17:39;10.30;99.90
18218;DHT22;9234;49.344;11.120;2023-04-24T02:20:08;10.30;99.90
18218;DHT22;9234;49.344;11.120;2023-04-24T02:22:37;10.30;99.90
18218;DHT22;9234;49.344;11.120;2023-04-24T02:25:06;10.30;99.90
18218;DHT22;9234;49.344;11.120;2023-04-24T02:27:36;10.20;99.90
18218;DHT22;9234;49.344;11.120;2023-04-24T02:30:06;10.20;99.90
18218;DHT22;9234;49.344;11.120;2023-04-24T02:32:35;10.20;99.90
18218;DHT22;9234;49.344;11.120;2023-04-24T02:35:04;10.20;99.90
18218;DHT22;9234;49.344;11.120;2023-04-24T02:37:33;10.20;99.90
18218;DHT22;9234;49.344;11.120;2023-04-24T02:40:01;10.20;99.90
18218;DHT22;9234;49.344;11.120;2023-04-24T02:42:30;10.20;99.90
18218;DHT22;9234;49.344;11.120;2023-04-24T02:45:00;10.10;99.90
18218;DHT22;9234;49.344;11.120;2023-04-24T02:47:28;10.10;99.90
18218;DHT22;9234;49.344;11.120;2023-04-24T02:49:56;10.10;99.90
18218;DHT22;9234;49.344;11.120;2023-04-24T02:52:25;10.10;99.90
18218;DHT22;9234;49.344;11.120;2023-04-24T02:54:53;10.10;99.90
18218;DHT22;9234;49.344;11.120;2023-04-24T02:57:21;10.10;99.90
18218;DHT22;9234;49.344;11.120;2023-04-24T02:59:49;10.10;99.90
18218;DHT22;9234;49.344;11.120;2023-04-24T03:02:19;10.10;99.90
18218;DHT22;9234;49.344;11.120;2023-04-24T03:04:48;10.10;99.90
18218;DHT22;9234;49.344;11.120;2023-04-24T03:07:16;10.10;99.90
18218;DHT22;9234;49.344;11.120;2023-04-24T03:09:47;10.10;99.90
18218;DHT22;9234;49.344;11.120;2023-04-24T03:12:15;10.10;99.90
18218;DHT22;9234;49.344;11.120;2023-04-24T03:14:44;10.10;99.90
18218;DHT22;9234;49.344;11.120;2023-04-24T03:17:12;10.10;99.90
18218;DHT22;9234;49.344;11.120;2023-04-24T03:19:42;10.10;99.90
18218;DHT22;9234;49.344;11.120;2023-04-24T03:22:12;10.10;99.90
18218;DHT22;9234;49.344;11.120;2023-04-24T03:24:42;10.10;99.90
18218;DHT22;9234;49.344;11.120;2023-04-24T03:27:14;10.10;99.90
18218;DHT22;9234;49.344;11.120;2023-04-24T03:29:49;10.10;99.90
18218;DHT22;9234;49.344;11.120;2023-04-24T03:32:25;10.10;99.90
18218;DHT22;9234;49.344;11.120;2023-04-24T03:34:55;10.10;99.90
18218;DHT22;9234;49.344;11.120;2023-04-24T03:37:25;10.10;99.90
18218;DHT22;9234;49.344;11.120;2023-04-24T03:40:08;10.10;99.90
18218;DHT22;9234;49.344;11.120;2023-04-24T03:42:37;10.10;99.90
18218;DHT22;9234;49.344;11.120;2023-04-24T03:45:07;10.10;99.90
18218;DHT22;9234;49.344;11.120;2023-04-24T03:47:39;10.00;99.90
18218;DHT22;9234;49.344;11.120;2023-04-24T03:50:09;10.00;99.90
18218;DHT22;9234;49.344;11.120;2023-04-24T03:52:40;10.00;99.90
18218;DHT22;9234;49.344;11.120;2023-04-24T03:55:09;10.00;99.90
18218;DHT22;9234;49.344;11.120;2023-04-24T03:57:44;10.00;99.90
18218;DHT22;9234;49.344;11.120;2023-04-24T04:00:19;10.00;99.90
18218;DHT22;9234;49.344;11.120;2023-04-24T04:02:57;10.00;99.90
18218;DHT22;9234;49.344;11.120;2023-04-24T04:05:27;9.90;99.90
18218;DHT22;9234;49.344;11.120;2023-04-24T04:07:56;9.90;99.90
18218;DHT22;9234;49.344;11.120;2023-04-24T04:10:24;9.90;99.90
18218;DHT22;9234;49.344;11.120;2023-04-24T04:12:53;9.90;99.90
18218;DHT22;9234;49.344;11.120;2023-04-24T04:15:21;9.90;99.90
18218;DHT22;9234;49.344;11.120;2023-04-24T04:17:50;9.90;99.90
18218;DHT22;9234;49.344;11.120;2023-04-24T04:20:18;10.00;99.90
18218;DHT22;9234;49.344;11.120;2023-04-24T04:22:48;10.00;99.90
18218;DHT22;9234;49.344;11.120;2023-04-24T04:25:23;10.00;99.90
18218;DHT22;9234;49.344;11.120;2023-04-24T04:27:52;10.00;99.90
18218;DHT22;9234;49.344;11.120;2023-04-24T04:30:20;10.00;99.90
18218;DHT22;9234;49.344;11.120;2023-04-24T04:32:56;10.00;99.90
18218;DHT22;9234;49.344;11.120;2023-04-24T04:35:24;10.00;99.90
18218;DHT22;9234;49.344;11.120;2023-04-24T04:37:54;10.10;99.90
18218;DHT22;9234;49.344;11.120;2023-04-24T04:40:48;10.10;99.90
18218;DHT22;9234;49.344;11.120;2023-04-24T04:43:18;10.10;99.90
18218;DHT22;9234;49.344;11.120;2023-04-24T04:45:50;10.10;99.90
18218;DHT22;9234;49.344;11.120;2023-04-24T04:48:34;10.10;99.90
18218;DHT22;9234;49.344;11.120;2023-04-24T04:51:04;10.10;99.90
18218;DHT22;9234;49.344;11.120;2023-04-24T04:53:34;10.20;99.90
18218;DHT22;9234;49.344;11.120;2023-04-24T04:56:03;10.20;99.90
18218;DHT22;9234;49.344;11.120;2023-04-24T04:58:36;10.20;99.90
18218;DHT22;9234;49.344;11.120;2023-04-24T05:01:07;10.20;99.90
18218;DHT22;9234;49.344;11.120;2023-04-24T05:03:40;10.30;99.90
18218;DHT22;9234;49.344;11.120;2023-04-24T05:06:12;10.30;99.90
18218;DHT22;9234;49.344;11.120;2023-04-24T05:08:41;10.30;99.90
18218;DHT22;9234;49.344;11.120;2023-04-24T05:11:19;10.30;99.90
18218;DHT22;9234;49.344;11.120;2023-04-24T05:13:47;10.30;99.90
18218;DHT22;9234;49.344;11.120;2023-04-24T05:16:23;10.40;99.90
18218;DHT22;9234;49.344;11.120;2023-04-24T05:18:53;10.40;99.90
18218;DHT22;9234;49.344;11.120;2023-04-24T05:21:28;10.50;99.90
18218;DHT22;9234;49.344;11.120;2023-04-24T05:23:58;10.50;99.90
18218;DHT22;9234;49.344;11.120;2023-04-24T05:26:53;10.60;99.90
18218;DHT22;9234;49.344;11.120;2023-04-24T05:29:26;10.60;99.90
18218;DHT22;9234;49.344;11.120;2023-04-24T05:31:57;10.60;99.90
18218;DHT22;9234;49.344;11.120;2023-04-24T05:34:27;10.70;99.90
18218;DHT22;9234;49.344;11.120;2023-04-24T05:36:56;10.70;99.90
18218;DHT22;9234;49.344;11.120;2023-04-24T05:39:26;10.70;99.90
18218;DHT22;9234;49.344;11.120;2023-04-24T05:41:55;10.80;99.90
18218;DHT22;9234;49.344;11.120;2023-04-24T05:44:24;10.80;99.90
18218;DHT22;9234;49.344;11.120;2023-04-24T05:46:53;10.90;99.90
18218;DHT22;9234;49.344;11.120;2023-04-24T05:49:22;10.90;99.90
18218;DHT22;9234;49.344;11.120;2023-04-24T05:51:50;11.00;99.90
18218;DHT22;9234;49.344;11.120;2023-04-24T05:54:19;11.00;99.90
18218;DHT22;9234;49.344;11.120;2023-04-24T05:56:49;11.10;99.90
18218;DHT22;9234;49.344;11.120;2023-04-24T05:59:27;11.20;99.90
18218;DHT22;9234;49.344;11.120;2023-04-24T06:01:56;11.30;99.90
18218;DHT22;9234;49.344;11.120;2023-04-24T06:04:25;11.40;99.90
18218;DHT22;9234;49.344;11.120;2023-04-24T06:06:54;11.50;99.90
18218;DHT22;9234;49.344;11.120;2023-04-24T06:09:23;11.60;99.90
18218;DHT22;9234;49.344;11.120;2023-04-24T06:11:53;11.70;99.90
18218;DHT22;9234;49.344;11.120;2023-04-24T06:14:25;11.70;99.90
18218;DHT22;9234;49.344;11.120;2023-04-24T06:17:15;11.80;99.90
18218;DHT22;9234;49.344;11.120;2023-04-24T06:19:45;11.90;99.90
18218;DHT22;9234;49.344;11.120;2023-04-24T06:22:14;12.00;99.90
18218;DHT22;9234;49.344;11.120;2023-04-24T06:24:42;12.10;99.90
18218;DHT22;9234;49.344;11.120;2023-04-24T06:27:11;12.10;99.90
18218;DHT22;9234;49.344;11.120;2023-04-24T06:29:41;12.20;99.90
18218;DHT22;9234;49.344;11.120;2023-04-24T06:32:10;12.20;99.90
18218;DHT22;9234;49.344;11.120;2023-04-24T06:34:39;12.30;99.90
18218;DHT22;9234;49.344;11.120;2023-04-24T06:37:07;12.30;99.90
18218;DHT22;9234;49.344;11.120;2023-04-24T06:39:35;12.40;99.90
18218;DHT22;9234;49.344;11.120;2023-04-24T06:42:03;12.40;99.90
18218;DHT22;9234;49.344;11.120;2023-04-24T06:44:35;12.40;99.90
18218;DHT22;9234;49.344;11.120;2023-04-24T06:47:08;12.40;99.90
18218;DHT22;9234;49.344;11.120;2023-04-24T06:49:36;12.30;99.90
18218;DHT22;9234;49.344;11.120;2023-04-24T06:52:05;12.30;99.90
18218;DHT22;9234;49.344;11.120;2023-04-24T06:54:34;12.20;99.90
18218;DHT22;9234;49.344;11.120;2023-04-24T06:57:02;12.30;99.90
18218;DHT22;9234;49.344;11.120;2023-04-24T06:59:30;12.30;99.90
18218;DHT22;9234;49.344;11.120;2023-04-24T07:02:00;12.30;99.90
18218;DHT22;9234;49.344;11.120;2023-04-24T07:04:28;12.30;99.90
18218;DHT22;9234;49.344;11.120;2023-04-24T07:06:57;12.40;99.90
18218;DHT22;9234;49.344;11.120;2023-04-24T07:09:26;12.40;99.90
18218;DHT22;9234;49.344;11.120;2023-04-24T07:11:54;12.40;99.90
18218;DHT22;9234;49.344;11.120;2023-04-24T07:14:23;12.40;99.90
18218;DHT22;9234;49.344;11.120;2023-04-24T07:16:52;12.40;99.90
18218;DHT22;9234;49.344;11.120;2023-04-24T07:19:21;12.40;99.90
18218;DHT22;9234;49.344;11.120;2023-04-24T07:21:49;12.50;99.90
18218;DHT22;9234;49.344;11.120;2023-04-24T07:24:18;12.40;99.90
18218;DHT22;9234;49.344;11.120;2023-04-24T07:26:48;12.30;99.90
18218;DHT22;9234;49.344;11.120;2023-04-24T07:29:18;12.30;99.90
18218;DHT22;9234;49.344;11.120;2023-04-24T07:31:47;12.20;99.90
18218;DHT22;9234;49.344;11.120;2023-04-24T07:34:15;12.10;99.90
18218;DHT22;9234;49.344;11.120;2023-04-24T07:36:45;12.10;99.90
18218;DHT22;9234;49.344;11.120;2023-04-24T07:39:14;12.00;99.90
18218;DHT22;9234;49.344;11.120;2023-04-24T07:41:42;12.00;99.90
18218;DHT22;9234;49.344;11.120;2023-04-24T07:44:10;12.00;99.90
18218;DHT22;9234;49.344;11.120;2023-04-24T07:46:38;12.00;99.90
18218;DHT22;9234;49.344;11.120;2023-04-24T07:49:08;12.10;99.90
18218;DHT22;9234;49.344;11.120;2023-04-24T07:51:40;12.20;99.90
18218;DHT22;9234;49.344;11.120;2023-04-24T07:54:10;12.20;99.90
18218;DHT22;9234;49.344;11.120;2023-04-24T07:56:38;12.20;99.90
18218;DHT22;9234;49.344;11.120;2023-04-24T07:59:06;12.20;99.90
18218;DHT22;9234;49.344;11.120;2023-04-24T08:01:36;12.20;99.90
18218;DHT22;9234;49.344;11.120;2023-04-24T08:04:05;12.30;99.90
18218;DHT22;9234;49.344;11.120;2023-04-24T08:06:34;12.30;99.90
18218;DHT22;9234;49.344;11.120;2023-04-24T08:09:02;12.40;99.90
18218;DHT22;9234;49.344;11.120;2023-04-24T08:11:32;12.50;99.90
18218;DHT22;9234;49.344;11.120;2023-04-24T08:14:00;12.50;99.90
18218;DHT22;9234;49.344;11.120;2023-04-24T08:16:29;12.60;99.90
18218;DHT22;9234;49.344;11.120;2023-04-24T08:18:57;12.70;99.90
18218;DHT22;9234;49.344;11.120;2023-04-24T08:21:26;12.80;99.90
18218;DHT22;9234;49.344;11.120;2023-04-24T08:23:54;12.70;99.90
18218;DHT22;9234;49.344;11.120;2023-04-24T08:26:23;12.60;99.90
18218;DHT22;9234;49.344;11.120;2023-04-24T08:28:52;12.60;99.90
18218;DHT22;9234;49.344;11.120;2023-04-24T08:31:21;12.60;99.90
18218;DHT22;9234;49.344;11.120;2023-04-24T08:33:54;12.60;99.90
18218;DHT22;9234;49.344;11.120;2023-04-24T08:36:22;12.60;99.90
18218;DHT22;9234;49.344;11.120;2023-04-24T08:39:05;12.60;99.90
18218;DHT22;9234;49.344;11.120;2023-04-24T08:41:34;12.60;99.90
18218;DHT22;9234;49.344;11.120;2023-04-24T08:44:06;12.70;99.90
18218;DHT22;9234;49.344;11.120;2023-04-24T08:46:37;12.70;99.90
18218;DHT22;9234;49.344;11.120;2023-04-24T08:49:06;12.90;99.90
18218;DHT22;9234;49.344;11.120;2023-04-24T08:51:36;13.00;99.90
18218;DHT22;9234;49.344;11.120;2023-04-24T08:54:05;13.00;99.90
18218;DHT22;9234;49.344;11.120;2023-04-24T08:56:36;13.10;99.90
18218;DHT22;9234;49.344;11.120;2023-04-24T08:59:08;13.20;99.90
18218;DHT22;9234;49.344;11.120;2023-04-24T09:01:38;13.30;99.90
18218;DHT22;9234;49.344;11.120;2023-04-24T09:04:08;13.50;99.90
18218;DHT22;9234;49.344;11.120;2023-04-24T09:06:39;13.60;99.90
18218;DHT22;9234;49.344;11.120;2023-04-24T09:09:08;13.80;99.90
18218;DHT22;9234;49.344;11.120;2023-04-24T09:11:38;13.90;99.90
18218;DHT22;9234;49.344;11.120;2023-04-24T09:14:09;13.80;99.90
18218;DHT22;9234;49.344;11.120;2023-04-24T09:16:38;13.80;99.90
18218;DHT22;9234;49.344;11.120;2023-04-24T09:19:06;13.80;99.90
18218;DHT22;9234;49.344;11.120;2023-04-24T09:21:35;13.80;99.90
18218;DHT22;9234;49.344;11.120;2023-04-24T09:24:07;13.90;99.90
18218;DHT22;9234;49.344;11.120;2023-04-24T09:26:44;13.90;99.90
18218;DHT22;9234;49.344;11.120;2023-04-24T09:29:16;14.00;99.90
18218;DHT22;9234;49.344;11.120;2023-04-24T09:31:45;14.00;99.90
18218;DHT22;9234;49.344;11.120;2023-04-24T09:34:13;14.10;99.90
18218;DHT22;9234;49.344;11.120;2023-04-24T09:36:42;14.10;99.60
18218;DHT22;9234;49.344;11.120;2023-04-24T09:39:13;14.00;99.90
18218;DHT22;9234;49.344;11.120;2023-04-24T09:41:47;14.00;99.90
18218;DHT22;9234;49.344;11.120;2023-04-24T09:44:19;13.90;99.60
18218;DHT22;9234;49.344;11.120;2023-04-24T09:46:50;13.80;99.60
18218;DHT22;9234;49.344;11.120;2023-04-24T09:49:22;13.70;99.20
18218;DHT22;9234;49.344;11.120;2023-04-24T09:51:52;13.70;99.50
18218;DHT22;9234;49.344;11.120;2023-04-24T09:54:30;13.70;99.80
18218;DHT22;9234;49.344;11.120;2023-04-24T09:56:58;13.80;99.90
18218;DHT22;9234;49.344;11.120;2023-04-24T09:59:29;13.80;99.70
18218;DHT22;9234;49.344;11.120;2023-04-24T10:01:59;13.70;99.80
18218;DHT22;9234;49.344;11.120;2023-04-24T10:04:28;13.70;99.80
18218;DHT22;9234;49.344;11.120;2023-04-24T10:06:57;13.60;99.90
18218;DHT22;9234;49.344;11.120;2023-04-24T10:09:26;13.60;99.90
18218;DHT22;9234;49.344;11.120;2023-04-24T10:11:55;13.70;99.30
18218;DHT22;9234;49.344;11.120;2023-04-24T10:14:24;13.60;99.80
18218;DHT22;9234;49.344;11.120;2023-04-24T10:16:54;13.70;99.20
18218;DHT22;9234;49.344;11.120;2023-04-24T10:19:26;13.70;99.50
18218;DHT22;9234;49.344;11.120;2023-04-24T10:21:54;13.90;99.80
18218;DHT22;9234;49.344;11.120;2023-04-24T10:24:25;14.40;99.90
18218;DHT22;9234;49.344;11.120;2023-04-24T10:26:54;15.00;99.00
18218;DHT22;9234;49.344;11.120;2023-04-24T10:29:23;15.20;96.50
18218;DHT22;9234;49.344;11.120;2023-04-24T10:31:54;15.30;96.90
18218;DHT22;9234;49.344;11.120;2023-04-24T10:34:22;15.20;94.40
18218;DHT22;9234;49.344;11.120;2023-04-24T10:36:53;15.00;93.80
18218;DHT22;9234;49.344;11.120;2023-04-24T10:39:24;14.80;93.00
18218;DHT22;9234;49.344;11.120;2023-04-24T10:41:54;14.80;93.40
18218;DHT22;9234;49.344;11.120;2023-04-24T10:44:24;14.90;93.10
18218;DHT22;9234;49.344;11.120;2023-04-24T10:46:55;15.00;93.40
18218;DHT22;9234;49.344;11.120;2023-04-24T10:49:28;15.30;92.50
18218;DHT22;9234;49.344;11.120;2023-04-24T10:52:01;15.40;91.50
18218;DHT22;9234;49.344;11.120;2023-04-24T10:54:35;15.40;90.60
18218;DHT22;9234;49.344;11.120;2023-04-24T10:57:26;15.40;88.40
18218;DHT22;9234;49.344;11.120;2023-04-24T11:00:20;15.70;87.90
18218;DHT22;9234;49.344;11.120;2023-04-24T11:02:52;15.90;83.30
18218;DHT22;9234;49.344;11.120;2023-04-24T11:05:22;15.80;84.10
18218;DHT22;9234;49.344;11.120;2023-04-24T11:08:11;15.70;87.40
18218;DHT22;9234;49.344;11.120;2023-04-24T11:10:43;15.60;91.00
18218;DHT22;9234;49.344;11.120;2023-04-24T11:13:15;15.50;92.10
18218;DHT22;9234;49.344;11.120;2023-04-24T11:15:44;15.30;92.80
18218;DHT22;9234;49.344;11.120;2023-04-24T11:18:15;15.10;93.30
18218;DHT22;9234;49.344;11.120;2023-04-24T11:20:44;14.90;92.80
18218;DHT22;9234;49.344;11.120;2023-04-24T11:23:13;14.60;93.20
18218;DHT22;9234;49.344;11.120;2023-04-24T11:25:41;14.50;93.80
18218;DHT22;9234;49.344;11.120;2023-04-24T11:28:14;14.50;94.20
18218;DHT22;9234;49.344;11.120;2023-04-24T11:30:44;14.50;94.10
18218;DHT22;9234;49.344;11.120;2023-04-24T11:33:21;14.60;94.60
18218;DHT22;9234;49.344;11.120;2023-04-24T11:35:51;14.60;94.10
18218;DHT22;9234;49.344;11.120;2023-04-24T11:38:19;14.70;94.20
18218;DHT22;9234;49.344;11.120;2023-04-24T11:40:51;14.80;93.20
18218;DHT22;9234;49.344;11.120;2023-04-24T11:43:20;14.90;92.90
18218;DHT22;9234;49.344;11.120;2023-04-24T11:45:49;15.10;93.00
18218;DHT22;9234;49.344;11.120;2023-04-24T11:48:20;15.30;93.00
18218;DHT22;9234;49.344;11.120;2023-04-24T11:50:50;15.20;90.40
18218;DHT22;9234;49.344;11.120;2023-04-24T11:53:19;15.20;90.40
18218;DHT22;9234;49.344;11.120;2023-04-24T11:55:48;15.10;90.60
18218;DHT22;9234;49.344;11.120;2023-04-24T11:58:21;15.10;90.20
18218;DHT22;9234;49.344;11.120;2023-04-24T12:00:56;15.00;90.70
18218;DHT22;9234;49.344;11.120;2023-04-24T12:03:27;14.90;91.00
18218;DHT22;9234;49.344;11.120;2023-04-24T12:06:04;14.70;91.70
18218;DHT22;9234;49.344;11.120;2023-04-24T12:08:34;14.60;92.10
18218;DHT22;9234;49.344;11.120;2023-04-24T12:11:05;14.60;92.00
18218;DHT22;9234;49.344;11.120;2023-04-24T12:13:35;14.60;92.60
18218;DHT22;9234;49.344;11.120;2023-04-24T12:16:04;14.80;92.90
18218;DHT22;9234;49.344;11.120;2023-04-24T12:18:34;14.90;91.50
18218;DHT22;9234;49.344;11.120;2023-04-24T12:21:15;15.00;90.20
18218;DHT22;9234;49.344;11.120;2023-04-24T12:23:48;15.00;89.90
18218;DHT22;9234;49.344;11.120;2023-04-24T12:26:17;15.00;89.40
18218;DHT22;9234;49.344;11.120;2023-04-24T12:28:49;15.00;89.30
18218;DHT22;9234;49.344;11.120;2023-04-24T12:31:17;15.10;90.20
18218;DHT22;9234;49.344;11.120;2023-04-24T12:33:49;15.10;88.80
18218;DHT22;9234;49.344;11.120;2023-04-24T12:36:18;15.10;88.10
18218;DHT22;9234;49.344;11.120;2023-04-24T12:38:53;15.10;88.70
18218;DHT22;9234;49.344;11.120;2023-04-24T12:41:21;15.10;88.50
18218;DHT22;9234;49.344;11.120;2023-04-24T12:43:53;15.00;88.70
18218;DHT22;9234;49.344;11.120;2023-04-24T12:46:22;14.80;89.20
18218;DHT22;9234;49.344;11.120;2023-04-24T12:48:51;14.60;90.10
18218;DHT22;9234;49.344;11.120;2023-04-24T12:51:20;14.50;88.20
18218;DHT22;9234;49.344;11.120;2023-04-24T12:53:48;14.40;88.90
18218;DHT22;9234;49.344;11.120;2023-04-24T12:56:16;14.30;88.90
18218;DHT22;9234;49.344;11.120;2023-04-24T12:58:44;14.30;89.50
18218;DHT22;9234;49.344;11.120;2023-04-24T13:01:13;14.30;90.20
18218;DHT22;9234;49.344;11.120;2023-04-24T13:03:41;14.30;90.50
18218;DHT22;9234;49.344;11.120;2023-04-24T13:06:12;14.40;90.90
18218;DHT22;9234;49.344;11.120;2023-04-24T13:08:40;14.50;90.60
18218;DHT22;9234;49.344;11.120;2023-04-24T13:11:08;14.60;91.40
18218;DHT22;9234;49.344;11.120;2023-04-24T13:13:37;14.80;91.00
18218;DHT22;9234;49.344;11.120;2023-04-24T13:16:06;14.90;90.60
18218;DHT22;9234;49.344;11.120;2023-04-24T13:18:34;14.90;90.50
18218;DHT22;9234;49.344;11.120;2023-04-24T13:21:02;14.90;90.80
18218;DHT22;9234;49.344;11.120;2023-04-24T13:23:32;14.90;90.60
18218;DHT22;9234;49.344;11.120;2023-04-24T13:26:01;14.80;91.00
18218;DHT22;9234;49.344;11.120;2023-04-24T13:28:29;14.60;91.30
18218;DHT22;9234;49.344;11.120;2023-04-24T13:30:58;14.60;91.70
18218;DHT22;9234;49.344;11.120;2023-04-24T13:33:26;14.50;91.70
18218;DHT22;9234;49.344;11.120;2023-04-24T13:35:54;14.50;91.20
18218;DHT22;9234;49.344;11.120;2023-04-24T13:38:23;14.40;90.40
18218;DHT22;9234;49.344;11.120;2023-04-24T13:40:52;14.30;90.60
18218;DHT22;9234;49.344;11.120;2023-04-24T13:43:21;14.40;91.30
18218;DHT22;9234;49.344;11.120;2023-04-24T13:45:49;14.70;91.90
18218;DHT22;9234;49.344;11.120;2023-04-24T13:48:18;14.90;90.70
18218;DHT22;9234;49.344;11.120;2023-04-24T13:50:46;15.00;90.40
18218;DHT22;9234;49.344;11.120;2023-04-24T13:53:16;14.90;90.30
18218;DHT22;9234;49.344;11.120;2023-04-24T13:55:44;14.70;90.80
18218;DHT22;9234;49.344;11.120;2023-04-24T13:58:14;14.50;91.30
18218;DHT22;9234;49.344;11.120;2023-04-24T14:00:42;14.30;91.50
18218;DHT22;9234;49.344;11.120;2023-04-24T14:03:12;14.10;91.70
18218;DHT22;9234;49.344;11.120;2023-04-24T14:05:40;13.80;92.20
18218;DHT22;9234;49.344;11.120;2023-04-24T14:08:09;13.70;93.00
18218;DHT22;9234;49.344;11.120;2023-04-24T14:10:37;13.60;93.20
18218;DHT22;9234;49.344;11.120;2023-04-24T14:13:05;13.60;93.70
18218;DHT22;9234;49.344;11.120;2023-04-24T14:15:35;13.60;93.70
18218;DHT22;9234;49.344;11.120;2023-04-24T14:18:04;13.70;93.40
18218;DHT22;9234;49.344;11.120;2023-04-24T14:20:32;13.90;93.90
18218;DHT22;9234;49.344;11.120;2023-04-24T14:23:01;14.50;92.70
18218;DHT22;9234;49.344;11.120;2023-04-24T14:25:29;15.20;93.10
18218;DHT22;9234;49.344;11.120;2023-04-24T14:27:57;16.00;91.20
18218;DHT22;9234;49.344;11.120;2023-04-24T14:30:26;16.50;86.60
18218;DHT22;9234;49.344;11.120;2023-04-24T14:32:55;16.60;86.80
18218;DHT22;9234;49.344;11.120;2023-04-24T14:35:24;16.80;86.10
18218;DHT22;9234;49.344;11.120;2023-04-24T14:37:54;16.80;84.90
18218;DHT22;9234;49.344;11.120;2023-04-24T14:40:22;16.20;85.40
18218;DHT22;9234;49.344;11.120;2023-04-24T14:43:11;15.70;88.00
18218;DHT22;9234;49.344;11.120;2023-04-24T14:45:39;15.20;89.80
18218;DHT22;9234;49.344;11.120;2023-04-24T14:48:09;14.80;91.00
18218;DHT22;9234;49.344;11.120;2023-04-24T14:50:39;14.40;93.10
18218;DHT22;9234;49.344;11.120;2023-04-24T14:53:08;14.10;95.10
18218;DHT22;9234;49.344;11.120;2023-04-24T14:55:36;13.60;97.10
18218;DHT22;9234;49.344;11.120;2023-04-24T14:58:04;13.10;96.30
18218;DHT22;9234;49.344;11.120;2023-04-24T15:00:32;12.60;98.00
18218;DHT22;9234;49.344;11.120;2023-04-24T15:03:01;12.30;96.90
18218;DHT22;9234;49.344;11.120;2023-04-24T15:05:31;11.90;98.00
18218;DHT22;9234;49.344;11.120;2023-04-24T15:07:59;11.80;98.70
18218;DHT22;9234;49.344;11.120;2023-04-24T15:10:28;11.90;98.90
18218;DHT22;9234;49.344;11.120;2023-04-24T15:12:57;12.30;98.50
18218;DHT22;9234;49.344;11.120;2023-04-24T15:15:25;12.70;98.20
18218;DHT22;9234;49.344;11.120;2023-04-24T15:17:53;13.40;98.30
18218;DHT22;9234;49.344;11.120;2023-04-24T15:20:22;13.90;96.60
18218;DHT22;9234;49.344;11.120;2023-04-24T15:22:52;14.10;96.00
18218;DHT22;9234;49.344;11.120;2023-04-24T15:25:20;14.20;96.00
18218;DHT22;9234;49.344;11.120;2023-04-24T15:27:48;14.40;96.00
18218;DHT22;9234;49.344;11.120;2023-04-24T15:30:16;14.90;95.40
18218;DHT22;9234;49.344;11.120;2023-04-24T15:32:48;15.40;94.30
18218;DHT22;9234;49.344;11.120;2023-04-24T15:35:16;15.70;93.10
18218;DHT22;9234;49.344;11.120;2023-04-24T15:37:45;15.90;93.00
18218;DHT22;9234;49.344;11.120;2023-04-24T15:40:14;16.10;92.90
18218;DHT22;9234;49.344;11.120;2023-04-24T15:42:43;16.80;93.10
18218;DHT22;9234;49.344;11.120;2023-04-24T15:45:13;17.30;90.90
18218;DHT22;9234;49.344;11.120;2023-04-24T15:47:41;17.70;91.40